createdAt,value
2018-06-19T00:01:26.922Z,99.90
2018-06-19T00:06:21.562Z,99.90
2018-06-19T00:11:16.068Z,99.90
2018-06-19T00:16:10.736Z,99.90
2018-06-19T00:21:10.370Z,99.90
2018-06-19T00:26:05.181Z,99.90
2018-06-19T00:30:59.707Z,99.90
2018-06-19T00:35:54.192Z,99.90
2018-06-19T00:40:48.823Z,99.90
2018-06-19T00:45:43.803Z,99.90
2018-06-19T00:50:38.269Z,99.90
2018-06-19T00:55:32.912Z,99.90
2018-06-19T01:00:27.450Z,99.90
2018-06-19T01:05:22.093Z,99.90
2018-06-19T01:15:10.834Z,99.90
2018-06-19T01:20:07.348Z,99.90
2018-06-19T01:34:50.329Z,99.90
2018-06-19T01:39:44.798Z,99.90
2018-06-19T01:44:39.284Z,99.90
2018-06-19T01:49:33.909Z,99.90
2018-06-19T01:54:28.758Z,99.90
2018-06-19T01:59:23.435Z,99.90
2018-06-19T02:04:18.055Z,99.90
2018-06-19T02:09:12.849Z,99.90
2018-06-19T02:14:07.301Z,99.90
2018-06-19T02:19:01.884Z,99.90
2018-06-19T02:23:56.620Z,99.90
2018-06-19T02:28:51.113Z,99.90
2018-06-19T02:33:45.776Z,99.90
2018-06-19T02:38:40.313Z,99.90
2018-06-19T02:43:34.778Z,99.90
2018-06-19T02:48:29.276Z,99.90
2018-06-19T02:53:23.732Z,99.90
2018-06-19T02:58:18.204Z,99.90
2018-06-19T03:03:12.675Z,99.90
2018-06-19T03:13:01.500Z,99.90
2018-06-19T03:17:56.037Z,99.90
2018-06-19T03:22:50.652Z,99.90
2018-06-19T03:27:45.458Z,99.90
2018-06-19T03:32:40.220Z,99.90
2018-06-19T03:42:30.022Z,99.90
2018-06-19T03:47:24.562Z,99.90
2018-06-19T03:57:13.454Z,99.90
2018-06-19T04:02:07.922Z,99.90
2018-06-19T04:07:02.831Z,99.90
2018-06-19T04:11:57.657Z,99.90
2018-06-19T04:16:52.367Z,99.90
2018-06-19T04:21:47.332Z,99.90
2018-06-19T04:31:36.194Z,99.90
2018-06-19T04:36:31.455Z,99.90
2018-06-19T04:41:26.528Z,99.90
2018-06-19T04:46:21.136Z,99.90
2018-06-19T04:51:15.638Z,99.90
2018-06-19T04:56:10.112Z,99.90
2018-06-19T05:01:04.845Z,99.90
2018-06-19T05:05:59.567Z,99.90
2018-06-19T05:10:54.287Z,99.90
2018-06-19T05:15:49.042Z,99.90
2018-06-19T05:25:38.293Z,99.90
2018-06-19T05:30:32.822Z,99.90
2018-06-19T05:35:27.725Z,99.90
2018-06-19T05:40:22.293Z,99.90
2018-06-19T05:45:16.843Z,99.90
2018-06-19T05:50:11.370Z,99.90
2018-06-19T05:55:06.008Z,99.90
2018-06-19T06:04:55.129Z,99.90
2018-06-19T06:14:44.592Z,99.90
2018-06-19T06:19:39.576Z,99.90
2018-06-19T06:24:34.745Z,99.90
2018-06-19T06:29:29.600Z,99.90
2018-06-19T06:34:24.903Z,99.90
2018-06-19T06:39:19.486Z,99.90
2018-06-19T06:44:14.089Z,99.90
2018-06-19T06:49:09.206Z,99.90
2018-06-19T06:54:03.942Z,99.90
2018-06-19T06:58:58.778Z,99.90
2018-06-19T07:08:47.908Z,99.90
2018-06-19T07:18:37.628Z,99.90
2018-06-19T07:33:21.040Z,99.90
2018-06-19T07:43:10.138Z,99.90
2018-06-19T07:48:04.888Z,99.90
2018-06-19T07:52:59.650Z,99.90
2018-06-19T07:57:54.072Z,99.90
2018-06-19T08:02:49.666Z,99.90
2018-06-19T08:07:44.343Z,99.90
2018-06-19T08:12:39.268Z,99.90
2018-06-19T08:17:33.816Z,99.90
2018-06-19T08:22:28.547Z,99.90
2018-06-19T08:27:23.565Z,99.90
2018-06-19T08:32:18.445Z,99.90
2018-06-19T08:37:13.768Z,99.90
2018-06-19T08:42:08.320Z,99.90
2018-06-19T08:51:58.047Z,99.90
2018-06-19T09:01:47.725Z,99.90
2018-06-19T09:06:43.192Z,99.90
2018-06-19T09:11:37.976Z,99.90
2018-06-19T09:16:32.450Z,99.90
2018-06-19T09:21:27.281Z,99.90
2018-06-19T09:26:21.809Z,99.90
2018-06-19T09:31:16.793Z,99.90
2018-06-19T09:36:11.532Z,99.90
2018-06-19T09:41:06.370Z,99.90
2018-06-19T09:46:01.449Z,99.90
2018-06-19T09:50:55.922Z,99.90
2018-06-19T09:55:50.753Z,99.90
2018-06-19T10:00:45.647Z,99.90
2018-06-19T10:05:40.421Z,99.90
2018-06-19T10:10:35.116Z,99.90
2018-06-19T10:15:29.644Z,99.90
2018-06-19T10:20:24.262Z,99.90
2018-06-19T10:25:19.131Z,99.90
2018-06-19T10:30:13.842Z,99.90
2018-06-19T10:35:08.813Z,99.90
2018-06-19T10:49:52.240Z,99.90
2018-06-19T10:54:46.710Z,99.90
2018-06-19T10:59:41.167Z,99.90
2018-06-19T11:04:35.730Z,99.90
2018-06-19T11:09:31.042Z,99.90
2018-06-19T11:14:25.670Z,99.60
2018-06-19T11:19:20.406Z,98.40
2018-06-19T11:24:15.314Z,97.60
2018-06-19T11:34:04.445Z,98.10
2018-06-19T11:38:59.102Z,98.90
2018-06-19T11:43:53.702Z,99.80
2018-06-19T11:48:48.331Z,99.90
2018-06-19T11:53:43.156Z,99.90
2018-06-19T12:03:31.952Z,99.90
2018-06-19T12:08:26.849Z,99.80
2018-06-19T12:13:21.984Z,98.50
2018-06-19T12:18:17.004Z,97.30
2018-06-19T12:23:11.556Z,96.60
2018-06-19T12:28:06.082Z,95.60
2018-06-19T12:33:00.854Z,95.00
2018-06-19T12:42:50.308Z,94.90
2018-06-19T12:47:45.145Z,95.10
2018-06-19T12:52:56.650Z,95.30
2018-06-19T12:57:51.971Z,95.70
2018-06-19T13:03:04.074Z,96.20
2018-06-19T13:07:58.927Z,96.40
2018-06-19T13:18:44.223Z,96.80
2018-06-19T13:23:39.181Z,96.40
2018-06-19T13:44:46.451Z,95.10
2018-06-19T13:49:42.109Z,95.30
2018-06-19T13:54:36.862Z,95.70
2018-06-19T13:59:31.450Z,95.90
2018-06-19T14:04:26.302Z,95.80
2018-06-19T14:10:35.499Z,96.40
2018-06-19T14:15:34.292Z,96.50
2018-06-19T14:20:28.903Z,97.00
2018-06-19T14:25:23.958Z,97.30
2018-06-19T14:30:18.583Z,97.60
2018-06-19T14:35:13.585Z,97.20
2018-06-19T14:40:08.031Z,96.60
2018-06-19T14:45:02.868Z,95.80
2018-06-19T14:54:52.065Z,94.50
2018-06-19T14:59:46.676Z,94.10
2018-06-19T15:04:41.248Z,93.70
2018-06-19T15:14:30.020Z,94.90
2018-06-19T15:19:25.004Z,95.40
2018-06-19T15:24:19.886Z,96.20
2018-06-19T15:29:14.530Z,96.60
2018-06-19T15:34:09.430Z,97.20
2018-06-19T15:39:05.365Z,97.40
2018-06-19T15:43:59.825Z,97.40
2018-06-19T15:48:54.520Z,97.10
2018-06-19T15:53:49.665Z,96.70
2018-06-19T16:03:38.565Z,96.40
2018-06-19T16:08:33.203Z,95.60
2018-06-19T16:13:27.742Z,95.50
2018-06-19T16:18:22.663Z,95.30
2018-06-19T16:23:17.147Z,95.50
2018-06-19T16:28:11.829Z,95.30
2018-06-19T16:33:06.644Z,95.20
2018-06-19T16:42:56.080Z,95.30
2018-06-19T16:47:51.150Z,95.30
2018-06-19T16:52:46.118Z,95.10
2018-06-19T16:57:41.064Z,95.20
2018-06-19T17:02:36.924Z,95.30
2018-06-19T17:07:31.909Z,95.50
2018-06-19T17:12:27.669Z,96.00
2018-06-19T17:17:23.393Z,96.40
2018-06-19T17:22:18.037Z,96.70
2018-06-19T17:27:12.954Z,97.00
2018-06-19T17:32:07.455Z,97.70
2018-06-19T17:37:02.296Z,98.10
2018-06-19T17:41:57.682Z,98.40
2018-06-19T17:46:52.985Z,98.80
2018-06-19T17:51:48.298Z,99.40
2018-06-19T17:56:44.452Z,99.60
2018-06-19T18:06:36.787Z,99.90
2018-06-19T18:16:26.408Z,99.90
2018-06-19T18:21:20.993Z,99.90
2018-06-19T18:31:10.745Z,99.90
2018-06-19T18:36:05.421Z,99.90
2018-06-19T18:41:00.379Z,99.90
2018-06-19T18:45:55.005Z,99.90
2018-06-19T18:50:49.495Z,99.90
2018-06-19T19:05:32.853Z,99.90
2018-06-19T19:10:32.597Z,99.90
2018-06-19T19:15:32.371Z,99.90
2018-06-19T19:20:37.205Z,99.90
2018-06-19T19:30:56.932Z,99.90
2018-06-19T19:35:52.397Z,99.90
2018-06-19T19:40:46.932Z,99.90
2018-06-19T19:45:42.019Z,99.90
2018-06-19T19:50:36.743Z,99.90
2018-06-19T19:55:31.275Z,99.90
2018-06-19T20:00:27.436Z,99.90
2018-06-19T20:10:17.488Z,99.90
2018-06-19T20:15:12.518Z,99.90
2018-06-19T20:20:09.887Z,99.90
2018-06-19T20:25:05.107Z,99.90
2018-06-19T20:30:00.405Z,99.90
2018-06-19T20:34:55.312Z,99.90
2018-06-19T20:44:45.330Z,99.90
2018-06-19T20:49:40.390Z,99.90
2018-06-19T20:54:35.476Z,99.90
2018-06-19T20:59:30.825Z,99.90
2018-06-19T21:04:25.995Z,99.90
2018-06-19T21:09:20.496Z,99.90
2018-06-19T21:14:15.378Z,99.90
2018-06-19T21:19:09.828Z,99.90
2018-06-19T21:24:04.464Z,99.90
2018-06-19T21:28:59.279Z,99.90
2018-06-19T21:38:48.590Z,99.90
2018-06-19T21:43:43.464Z,99.90
2018-06-19T21:53:33.072Z,99.90
2018-06-19T21:58:27.967Z,99.90
2018-06-19T22:03:23.566Z,99.90
2018-06-19T22:08:19.266Z,99.90
2018-06-19T22:13:14.169Z,99.90
2018-06-19T22:18:09.074Z,99.90
2018-06-19T22:23:04.086Z,99.90
2018-06-19T22:27:58.828Z,99.90
2018-06-19T22:32:54.124Z,99.90
2018-06-19T22:42:43.311Z,99.90
2018-06-19T22:52:32.383Z,99.90
2018-06-19T22:57:27.032Z,99.90
2018-06-19T23:02:21.798Z,99.90
2018-06-19T23:07:16.306Z,99.90
2018-06-19T23:12:10.776Z,99.90
2018-06-19T23:17:05.357Z,99.90
2018-06-19T23:22:00.210Z,99.90
2018-06-19T23:26:54.717Z,99.90
2018-06-19T23:31:49.352Z,99.90
2018-06-19T23:36:43.993Z,99.90
2018-06-19T23:41:39.470Z,99.90
2018-06-19T23:46:33.941Z,99.90
2018-06-19T23:51:28.627Z,99.90
2018-06-19T23:56:23.132Z,99.90
